Terminal Aerodrome Forecast
Issued by NWS

Home | Current Version | Previous Version | Text Only | Print | Product List | Glossary On
Versions: 1 2 3 4 5 6 7 8 9 10 11 12 13 14 15 16 17 18 19 20 21 22 23 24 25 26 27 28 29 30 31 32
460
FTUS46 KLOX 010525
TAFSBP
TAF
KSBP 010525Z 0106/0206 VRB03KT P6SM OVC007
     FM011100 VRB05KT 4SM BR OVC003
     FM011600 VRB03KT 5SM BR OVC006
     FM011700 VRB03KT P6SM SKC
     FM012100 30010KT P6SM SKC
     FM020400 VRB03KT P6SM SKC=

USA.gov is the U.S. government's official web portal to all federal, state and local government web resources and services.